sensor_id;sensor_type;location;lat;lon;timestamp;P1;durP1;ratioP1;P2;durP2;ratioP2
24650;SDS011;12783;48.824;8.662;2023-10-09T00:02:09;24.92;;;3.80;;
24650;SDS011;12783;48.824;8.662;2023-10-09T00:04:38;19.40;;;4.35;;
24650;SDS011;12783;48.824;8.662;2023-10-09T00:07:08;12.63;;;3.58;;
24650;SDS011;12783;48.824;8.662;2023-10-09T00:09:37;18.30;;;3.45;;
24650;SDS011;12783;48.824;8.662;2023-10-09T00:12:15;11.27;;;3.20;;
24650;SDS011;12783;48.824;8.662;2023-10-09T00:14:49;28.58;;;3.90;;
24650;SDS011;12783;48.824;8.662;2023-10-09T00:17:22;17.20;;;3.92;;
24650;SDS011;12783;48.824;8.662;2023-10-09T00:19:50;18.63;;;3.90;;
24650;SDS011;12783;48.824;8.662;2023-10-09T00:22:26;25.42;;;4.03;;
24650;SDS011;12783;48.824;8.662;2023-10-09T00:24:55;18.48;;;3.83;;
24650;SDS011;12783;48.824;8.662;2023-10-09T00:27:41;22.45;;;3.95;;
24650;SDS011;12783;48.824;8.662;2023-10-09T00:30:13;23.27;;;4.07;;
24650;SDS011;12783;48.824;8.662;2023-10-09T00:32:45;22.73;;;4.65;;
24650;SDS011;12783;48.824;8.662;2023-10-09T00:35:25;25.23;;;4.25;;
24650;SDS011;12783;48.824;8.662;2023-10-09T00:38:04;15.98;;;3.80;;
24650;SDS011;12783;48.824;8.662;2023-10-09T00:40:50;22.42;;;3.88;;
24650;SDS011;12783;48.824;8.662;2023-10-09T00:43:30;23.30;;;4.15;;
24650;SDS011;12783;48.824;8.662;2023-10-09T00:45:59;20.25;;;4.45;;
24650;SDS011;12783;48.824;8.662;2023-10-09T00:48:38;22.75;;;3.53;;
24650;SDS011;12783;48.824;8.662;2023-10-09T00:51:08;29.67;;;4.78;;
24650;SDS011;12783;48.824;8.662;2023-10-09T00:53:54;16.35;;;3.80;;
24650;SDS011;12783;48.824;8.662;2023-10-09T00:56:24;16.83;;;3.78;;
24650;SDS011;12783;48.824;8.662;2023-10-09T00:58:58;20.52;;;3.60;;
24650;SDS011;12783;48.824;8.662;2023-10-09T01:01:33;15.85;;;3.13;;
24650;SDS011;12783;48.824;8.662;2023-10-09T01:04:06;23.45;;;4.30;;
24650;SDS011;12783;48.824;8.662;2023-10-09T01:06:40;12.68;;;3.40;;
24650;SDS011;12783;48.824;8.662;2023-10-09T01:09:11;27.10;;;3.92;;
24650;SDS011;12783;48.824;8.662;2023-10-09T01:11:46;23.95;;;4.00;;
24650;SDS011;12783;48.824;8.662;2023-10-09T01:14:15;29.00;;;3.95;;
24650;SDS011;12783;48.824;8.662;2023-10-09T01:16:42;19.77;;;3.58;;
24650;SDS011;12783;48.824;8.662;2023-10-09T01:19:10;17.95;;;4.03;;
24650;SDS011;12783;48.824;8.662;2023-10-09T01:21:46;23.42;;;3.83;;
24650;SDS011;12783;48.824;8.662;2023-10-09T01:24:14;24.17;;;3.88;;
24650;SDS011;12783;48.824;8.662;2023-10-09T01:26:46;19.70;;;4.03;;
24650;SDS011;12783;48.824;8.662;2023-10-09T01:29:16;14.02;;;3.13;;
24650;SDS011;12783;48.824;8.662;2023-10-09T01:31:51;25.70;;;4.13;;
24650;SDS011;12783;48.824;8.662;2023-10-09T01:34:27;14.00;;;3.22;;
24650;SDS011;12783;48.824;8.662;2023-10-09T01:37:19;17.67;;;3.60;;
24650;SDS011;12783;48.824;8.662;2023-10-09T01:39:51;20.35;;;3.88;;
24650;SDS011;12783;48.824;8.662;2023-10-09T01:42:20;23.58;;;3.50;;
24650;SDS011;12783;48.824;8.662;2023-10-09T01:44:56;26.08;;;3.17;;
24650;SDS011;12783;48.824;8.662;2023-10-09T01:47:42;12.23;;;3.50;;
24650;SDS011;12783;48.824;8.662;2023-10-09T01:50:18;20.92;;;4.07;;
24650;SDS011;12783;48.824;8.662;2023-10-09T01:52:48;19.80;;;3.88;;
24650;SDS011;12783;48.824;8.662;2023-10-09T01:55:17;15.07;;;3.53;;
24650;SDS011;12783;48.824;8.662;2023-10-09T01:57:55;19.00;;;3.95;;
24650;SDS011;12783;48.824;8.662;2023-10-09T02:00:28;30.92;;;4.15;;
24650;SDS011;12783;48.824;8.662;2023-10-09T02:02:55;28.08;;;4.28;;
24650;SDS011;12783;48.824;8.662;2023-10-09T02:05:26;25.40;;;3.75;;
24650;SDS011;12783;48.824;8.662;2023-10-09T02:07:53;21.60;;;4.30;;
24650;SDS011;12783;48.824;8.662;2023-10-09T02:10:21;22.77;;;3.95;;
24650;SDS011;12783;48.824;8.662;2023-10-09T02:15:43;15.40;;;3.75;;
24650;SDS011;12783;48.824;8.662;2023-10-09T02:18:12;25.08;;;4.40;;
24650;SDS011;12783;48.824;8.662;2023-10-09T02:20:51;23.25;;;4.25;;
24650;SDS011;12783;48.824;8.662;2023-10-09T02:23:38;16.55;;;3.70;;
24650;SDS011;12783;48.824;8.662;2023-10-09T02:26:12;36.58;;;4.47;;
24650;SDS011;12783;48.824;8.662;2023-10-09T02:28:58;27.48;;;4.20;;
24650;SDS011;12783;48.824;8.662;2023-10-09T02:31:27;18.65;;;3.90;;
24650;SDS011;12783;48.824;8.662;2023-10-09T02:34:03;20.35;;;3.75;;
24650;SDS011;12783;48.824;8.662;2023-10-09T02:36:38;26.10;;;4.88;;
24650;SDS011;12783;48.824;8.662;2023-10-09T02:39:10;18.30;;;3.58;;
24650;SDS011;12783;48.824;8.662;2023-10-09T02:42:01;20.38;;;3.83;;
24650;SDS011;12783;48.824;8.662;2023-10-09T02:44:50;31.08;;;5.45;;
24650;SDS011;12783;48.824;8.662;2023-10-09T02:47:18;20.15;;;4.25;;
24650;SDS011;12783;48.824;8.662;2023-10-09T02:49:56;31.13;;;5.25;;
24650;SDS011;12783;48.824;8.662;2023-10-09T02:52:33;24.95;;;4.15;;
24650;SDS011;12783;48.824;8.662;2023-10-09T02:55:07;35.08;;;4.45;;
24650;SDS011;12783;48.824;8.662;2023-10-09T02:57:39;24.95;;;4.78;;
24650;SDS011;12783;48.824;8.662;2023-10-09T03:00:08;31.15;;;5.32;;
24650;SDS011;12783;48.824;8.662;2023-10-09T03:02:45;25.50;;;5.10;;
24650;SDS011;12783;48.824;8.662;2023-10-09T03:05:16;25.90;;;4.40;;
24650;SDS011;12783;48.824;8.662;2023-10-09T03:07:44;27.98;;;3.83;;
24650;SDS011;12783;48.824;8.662;2023-10-09T03:10:11;20.40;;;3.72;;
24650;SDS011;12783;48.824;8.662;2023-10-09T03:12:38;24.40;;;3.97;;
24650;SDS011;12783;48.824;8.662;2023-10-09T03:15:06;36.20;;;4.88;;
24650;SDS011;12783;48.824;8.662;2023-10-09T03:17:36;30.00;;;4.68;;
24650;SDS011;12783;48.824;8.662;2023-10-09T03:20:04;31.58;;;4.97;;
24650;SDS011;12783;48.824;8.662;2023-10-09T03:22:39;22.42;;;4.18;;
24650;SDS011;12783;48.824;8.662;2023-10-09T03:25:07;20.23;;;3.92;;
24650;SDS011;12783;48.824;8.662;2023-10-09T03:27:40;34.67;;;4.30;;
24650;SDS011;12783;48.824;8.662;2023-10-09T03:30:13;30.98;;;4.40;;
24650;SDS011;12783;48.824;8.662;2023-10-09T03:32:44;23.20;;;4.53;;
24650;SDS011;12783;48.824;8.662;2023-10-09T03:35:17;31.60;;;4.82;;
24650;SDS011;12783;48.824;8.662;2023-10-09T03:37:56;30.42;;;4.97;;
24650;SDS011;12783;48.824;8.662;2023-10-09T03:40:36;26.80;;;4.55;;
24650;SDS011;12783;48.824;8.662;2023-10-09T03:43:05;20.65;;;4.40;;
24650;SDS011;12783;48.824;8.662;2023-10-09T03:45:32;28.27;;;4.70;;
24650;SDS011;12783;48.824;8.662;2023-10-09T03:48:02;23.52;;;4.45;;
24650;SDS011;12783;48.824;8.662;2023-10-09T03:50:38;21.55;;;4.75;;
24650;SDS011;12783;48.824;8.662;2023-10-09T03:53:05;31.55;;;4.53;;
24650;SDS011;12783;48.824;8.662;2023-10-09T03:55:36;23.05;;;4.68;;
24650;SDS011;12783;48.824;8.662;2023-10-09T03:58:07;29.35;;;4.28;;
24650;SDS011;12783;48.824;8.662;2023-10-09T04:00:37;24.95;;;4.03;;
24650;SDS011;12783;48.824;8.662;2023-10-09T04:05:41;24.25;;;4.57;;
24650;SDS011;12783;48.824;8.662;2023-10-09T04:08:10;28.17;;;4.32;;
24650;SDS011;12783;48.824;8.662;2023-10-09T04:10:56;26.10;;;4.32;;
24650;SDS011;12783;48.824;8.662;2023-10-09T04:13:33;20.80;;;4.13;;
24650;SDS011;12783;48.824;8.662;2023-10-09T04:16:01;23.13;;;4.10;;
24650;SDS011;12783;48.824;8.662;2023-10-09T04:18:53;26.52;;;4.55;;
24650;SDS011;12783;48.824;8.662;2023-10-09T04:21:23;23.23;;;4.53;;
24650;SDS011;12783;48.824;8.662;2023-10-09T04:24:06;23.08;;;4.10;;
24650;SDS011;12783;48.824;8.662;2023-10-09T04:26:41;31.73;;;4.45;;
24650;SDS011;12783;48.824;8.662;2023-10-09T04:29:16;21.65;;;4.57;;
24650;SDS011;12783;48.824;8.662;2023-10-09T04:31:57;32.97;;;4.70;;
24650;SDS011;12783;48.824;8.662;2023-10-09T04:34:27;24.83;;;3.78;;
24650;SDS011;12783;48.824;8.662;2023-10-09T04:36:55;22.00;;;4.43;;
24650;SDS011;12783;48.824;8.662;2023-10-09T04:39:27;28.65;;;3.97;;
24650;SDS011;12783;48.824;8.662;2023-10-09T04:41:57;22.85;;;4.35;;
24650;SDS011;12783;48.824;8.662;2023-10-09T04:44:43;30.05;;;3.88;;
24650;SDS011;12783;48.824;8.662;2023-10-09T04:47:34;30.00;;;4.85;;
24650;SDS011;12783;48.824;8.662;2023-10-09T04:50:03;23.08;;;4.13;;
24650;SDS011;12783;48.824;8.662;2023-10-09T04:52:59;23.55;;;4.35;;
24650;SDS011;12783;48.824;8.662;2023-10-09T04:55:53;22.27;;;3.95;;
24650;SDS011;12783;48.824;8.662;2023-10-09T04:58:24;22.00;;;3.75;;
24650;SDS011;12783;48.824;8.662;2023-10-09T05:00:55;20.50;;;3.58;;
24650;SDS011;12783;48.824;8.662;2023-10-09T05:03:24;25.15;;;4.07;;
24650;SDS011;12783;48.824;8.662;2023-10-09T05:09:09;25.42;;;4.55;;
24650;SDS011;12783;48.824;8.662;2023-10-09T05:11:39;26.02;;;3.65;;
24650;SDS011;12783;48.824;8.662;2023-10-09T05:14:21;27.17;;;4.05;;
24650;SDS011;12783;48.824;8.662;2023-10-09T05:17:07;26.98;;;3.90;;
24650;SDS011;12783;48.824;8.662;2023-10-09T05:19:42;22.95;;;3.90;;
24650;SDS011;12783;48.824;8.662;2023-10-09T05:22:21;20.20;;;3.75;;
24650;SDS011;12783;48.824;8.662;2023-10-09T05:25:04;19.20;;;3.40;;
24650;SDS011;12783;48.824;8.662;2023-10-09T05:27:41;24.98;;;3.63;;
24650;SDS011;12783;48.824;8.662;2023-10-09T05:30:11;20.83;;;3.83;;
24650;SDS011;12783;48.824;8.662;2023-10-09T05:32:54;25.83;;;3.60;;
24650;SDS011;12783;48.824;8.662;2023-10-09T05:35:25;20.20;;;3.65;;
24650;SDS011;12783;48.824;8.662;2023-10-09T05:38:14;25.33;;;3.88;;
24650;SDS011;12783;48.824;8.662;2023-10-09T05:40:50;19.73;;;3.60;;
24650;SDS011;12783;48.824;8.662;2023-10-09T05:43:31;24.48;;;3.90;;
24650;SDS011;12783;48.824;8.662;2023-10-09T05:46:16;23.42;;;3.67;;
24650;SDS011;12783;48.824;8.662;2023-10-09T05:48:43;15.50;;;3.92;;
24650;SDS011;12783;48.824;8.662;2023-10-09T05:51:10;28.85;;;4.43;;
24650;SDS011;12783;48.824;8.662;2023-10-09T05:53:39;23.00;;;3.88;;
24650;SDS011;12783;48.824;8.662;2023-10-09T05:56:12;22.85;;;3.70;;
24650;SDS011;12783;48.824;8.662;2023-10-09T05:58:58;29.58;;;4.18;;
24650;SDS011;12783;48.824;8.662;2023-10-09T06:01:43;24.05;;;4.03;;
24650;SDS011;12783;48.824;8.662;2023-10-09T06:04:22;26.10;;;4.57;;
24650;SDS011;12783;48.824;8.662;2023-10-09T06:07:00;20.17;;;3.53;;
24650;SDS011;12783;48.824;8.662;2023-10-09T06:09:37;19.23;;;3.03;;
24650;SDS011;12783;48.824;8.662;2023-10-09T06:12:18;21.77;;;4.32;;
24650;SDS011;12783;48.824;8.662;2023-10-09T06:14:58;31.35;;;4.43;;
24650;SDS011;12783;48.824;8.662;2023-10-09T06:17:47;21.98;;;3.25;;
24650;SDS011;12783;48.824;8.662;2023-10-09T06:20:17;17.13;;;3.65;;
24650;SDS011;12783;48.824;8.662;2023-10-09T06:23:13;22.55;;;4.18;;
24650;SDS011;12783;48.824;8.662;2023-10-09T06:25:43;17.15;;;3.53;;
24650;SDS011;12783;48.824;8.662;2023-10-09T06:28:18;17.52;;;3.20;;
24650;SDS011;12783;48.824;8.662;2023-10-09T06:30:45;15.25;;;3.83;;
24650;SDS011;12783;48.824;8.662;2023-10-09T06:33:14;24.73;;;4.15;;
24650;SDS011;12783;48.824;8.662;2023-10-09T06:35:55;27.00;;;3.35;;
24650;SDS011;12783;48.824;8.662;2023-10-09T06:38:22;35.17;;;5.13;;
24650;SDS011;12783;48.824;8.662;2023-10-09T06:40:50;25.98;;;3.80;;
24650;SDS011;12783;48.824;8.662;2023-10-09T06:43:32;23.77;;;4.18;;
24650;SDS011;12783;48.824;8.662;2023-10-09T06:46:02;33.28;;;4.13;;
24650;SDS011;12783;48.824;8.662;2023-10-09T06:48:48;30.45;;;3.83;;
24650;SDS011;12783;48.824;8.662;2023-10-09T06:51:24;24.50;;;3.47;;
24650;SDS011;12783;48.824;8.662;2023-10-09T06:53:54;25.98;;;4.40;;
24650;SDS011;12783;48.824;8.662;2023-10-09T06:56:23;30.05;;;4.45;;
24650;SDS011;12783;48.824;8.662;2023-10-09T06:59:05;35.25;;;4.55;;
24650;SDS011;12783;48.824;8.662;2023-10-09T07:01:51;31.75;;;4.35;;
24650;SDS011;12783;48.824;8.662;2023-10-09T07:04:37;33.20;;;4.30;;
24650;SDS011;12783;48.824;8.662;2023-10-09T07:07:04;46.13;;;5.22;;
24650;SDS011;12783;48.824;8.662;2023-10-09T07:09:36;34.55;;;4.50;;
24650;SDS011;12783;48.824;8.662;2023-10-09T07:12:10;32.05;;;4.93;;
24650;SDS011;12783;48.824;8.662;2023-10-09T07:14:47;30.00;;;4.65;;
24650;SDS011;12783;48.824;8.662;2023-10-09T07:17:13;33.92;;;5.95;;
24650;SDS011;12783;48.824;8.662;2023-10-09T07:20:10;29.15;;;4.10;;
24650;SDS011;12783;48.824;8.662;2023-10-09T07:22:42;30.77;;;4.68;;
24650;SDS011;12783;48.824;8.662;2023-10-09T07:25:40;26.98;;;4.20;;
24650;SDS011;12783;48.824;8.662;2023-10-09T07:28:23;29.45;;;4.72;;
24650;SDS011;12783;48.824;8.662;2023-10-09T07:31:03;33.40;;;4.75;;
24650;SDS011;12783;48.824;8.662;2023-10-09T07:33:30;37.13;;;4.85;;
24650;SDS011;12783;48.824;8.662;2023-10-09T07:36:18;25.98;;;4.15;;
24650;SDS011;12783;48.824;8.662;2023-10-09T07:39:02;32.72;;;5.20;;
24650;SDS011;12783;48.824;8.662;2023-10-09T07:41:41;29.15;;;5.50;;
24650;SDS011;12783;48.824;8.662;2023-10-09T07:44:22;31.17;;;5.18;;
24650;SDS011;12783;48.824;8.662;2023-10-09T07:47:03;36.55;;;4.93;;
24650;SDS011;12783;48.824;8.662;2023-10-09T07:49:43;28.83;;;4.90;;
24650;SDS011;12783;48.824;8.662;2023-10-09T07:52:20;37.28;;;4.68;;
24650;SDS011;12783;48.824;8.662;2023-10-09T07:54:48;23.20;;;4.45;;
24650;SDS011;12783;48.824;8.662;2023-10-09T07:57:16;33.17;;;4.18;;
24650;SDS011;12783;48.824;8.662;2023-10-09T07:59:44;22.25;;;4.55;;
24650;SDS011;12783;48.824;8.662;2023-10-09T08:02:30;31.10;;;4.53;;
24650;SDS011;12783;48.824;8.662;2023-10-09T08:05:00;30.23;;;4.80;;
24650;SDS011;12783;48.824;8.662;2023-10-09T08:07:47;41.28;;;4.18;;
24650;SDS011;12783;48.824;8.662;2023-10-09T08:10:33;43.42;;;5.20;;
24650;SDS011;12783;48.824;8.662;2023-10-09T08:13:01;24.80;;;4.25;;
24650;SDS011;12783;48.824;8.662;2023-10-09T08:15:48;25.83;;;4.05;;
24650;SDS011;12783;48.824;8.662;2023-10-09T08:18:23;23.27;;;3.85;;
24650;SDS011;12783;48.824;8.662;2023-10-09T08:20:57;24.25;;;4.18;;
24650;SDS011;12783;48.824;8.662;2023-10-09T08:23:24;36.40;;;4.88;;
24650;SDS011;12783;48.824;8.662;2023-10-09T08:26:12;24.88;;;3.90;;
24650;SDS011;12783;48.824;8.662;2023-10-09T08:28:41;27.70;;;4.63;;
24650;SDS011;12783;48.824;8.662;2023-10-09T08:31:16;35.15;;;4.45;;
24650;SDS011;12783;48.824;8.662;2023-10-09T08:34:12;28.25;;;4.43;;
24650;SDS011;12783;48.824;8.662;2023-10-09T08:36:55;27.63;;;4.07;;
24650;SDS011;12783;48.824;8.662;2023-10-09T08:39:22;25.85;;;3.63;;
24650;SDS011;12783;48.824;8.662;2023-10-09T08:41:53;26.13;;;4.25;;
24650;SDS011;12783;48.824;8.662;2023-10-09T08:44:34;21.17;;;3.47;;
24650;SDS011;12783;48.824;8.662;2023-10-09T08:47:02;42.25;;;4.18;;
24650;SDS011;12783;48.824;8.662;2023-10-09T08:49:30;18.95;;;3.10;;
24650;SDS011;12783;48.824;8.662;2023-10-09T08:51:59;17.27;;;3.65;;
24650;SDS011;12783;48.824;8.662;2023-10-09T08:54:29;30.25;;;3.70;;
24650;SDS011;12783;48.824;8.662;2023-10-09T08:57:00;22.42;;;3.50;;
24650;SDS011;12783;48.824;8.662;2023-10-09T08:59:27;18.90;;;3.42;;
24650;SDS011;12783;48.824;8.662;2023-10-09T09:01:54;25.08;;;4.25;;
24650;SDS011;12783;48.824;8.662;2023-10-09T09:04:39;36.20;;;4.50;;
24650;SDS011;12783;48.824;8.662;2023-10-09T09:07:27;31.70;;;4.95;;
24650;SDS011;12783;48.824;8.662;2023-10-09T09:09:56;29.92;;;4.03;;
24650;SDS011;12783;48.824;8.662;2023-10-09T09:12:27;20.38;;;3.70;;
24650;SDS011;12783;48.824;8.662;2023-10-09T09:14:57;28.05;;;4.22;;
24650;SDS011;12783;48.824;8.662;2023-10-09T09:17:29;24.15;;;4.00;;
24650;SDS011;12783;48.824;8.662;2023-10-09T09:20:16;30.60;;;4.40;;
24650;SDS011;12783;48.824;8.662;2023-10-09T09:22:54;21.48;;;3.80;;
24650;SDS011;12783;48.824;8.662;2023-10-09T09:25:23;18.02;;;3.65;;
24650;SDS011;12783;48.824;8.662;2023-10-09T09:27:51;22.83;;;4.07;;
24650;SDS011;12783;48.824;8.662;2023-10-09T09:30:23;27.98;;;3.67;;
24650;SDS011;12783;48.824;8.662;2023-10-09T09:33:17;19.92;;;3.67;;
24650;SDS011;12783;48.824;8.662;2023-10-09T09:36:07;23.80;;;3.63;;
24650;SDS011;12783;48.824;8.662;2023-10-09T09:38:34;25.02;;;3.38;;
24650;SDS011;12783;48.824;8.662;2023-10-09T09:41:15;22.63;;;3.67;;
24650;SDS011;12783;48.824;8.662;2023-10-09T09:43:55;25.92;;;3.72;;
24650;SDS011;12783;48.824;8.662;2023-10-09T09:46:34;21.27;;;3.72;;
24650;SDS011;12783;48.824;8.662;2023-10-09T09:49:02;21.35;;;3.85;;
24650;SDS011;12783;48.824;8.662;2023-10-09T09:51:48;23.50;;;3.72;;
24650;SDS011;12783;48.824;8.662;2023-10-09T09:54:15;21.30;;;3.53;;
24650;SDS011;12783;48.824;8.662;2023-10-09T09:56:44;14.43;;;3.22;;
24650;SDS011;12783;48.824;8.662;2023-10-09T09:59:18;17.42;;;3.95;;
24650;SDS011;12783;48.824;8.662;2023-10-09T10:02:13;20.33;;;3.70;;
24650;SDS011;12783;48.824;8.662;2023-10-09T10:04:50;22.35;;;4.05;;
24650;SDS011;12783;48.824;8.662;2023-10-09T10:07:26;19.20;;;3.30;;
24650;SDS011;12783;48.824;8.662;2023-10-09T10:09:57;18.33;;;3.67;;
24650;SDS011;12783;48.824;8.662;2023-10-09T10:18:32;20.27;;;3.83;;
24650;SDS011;12783;48.824;8.662;2023-10-09T10:23:43;24.42;;;3.78;;
24650;SDS011;12783;48.824;8.662;2023-10-09T10:31:53;13.98;;;3.38;;
24650;SDS011;12783;48.824;8.662;2023-10-09T10:37:37;20.75;;;3.40;;
24650;SDS011;12783;48.824;8.662;2023-10-09T10:40:23;16.35;;;3.20;;
24650;SDS011;12783;48.824;8.662;2023-10-09T10:43:16;17.20;;;3.28;;
24650;SDS011;12783;48.824;8.662;2023-10-09T10:46:05;9.65;;;3.00;;
24650;SDS011;12783;48.824;8.662;2023-10-09T10:48:51;12.93;;;3.00;;
24650;SDS011;12783;48.824;8.662;2023-10-09T10:51:34;14.65;;;3.25;;
24650;SDS011;12783;48.824;8.662;2023-10-09T10:54:05;16.75;;;3.72;;
24650;SDS011;12783;48.824;8.662;2023-10-09T10:56:52;11.65;;;3.17;;
24650;SDS011;12783;48.824;8.662;2023-10-09T10:59:20;19.23;;;3.83;;
24650;SDS011;12783;48.824;8.662;2023-10-09T11:01:52;18.67;;;4.15;;
24650;SDS011;12783;48.824;8.662;2023-10-09T11:04:25;18.15;;;3.28;;
24650;SDS011;12783;48.824;8.662;2023-10-09T11:07:05;18.55;;;3.97;;
24650;SDS011;12783;48.824;8.662;2023-10-09T11:12:43;13.77;;;4.13;;
24650;SDS011;12783;48.824;8.662;2023-10-09T11:15:36;14.55;;;3.60;;
24650;SDS011;12783;48.824;8.662;2023-10-09T11:18:11;21.45;;;4.55;;
24650;SDS011;12783;48.824;8.662;2023-10-09T11:20:50;11.38;;;3.53;;
24650;SDS011;12783;48.824;8.662;2023-10-09T11:23:31;19.60;;;4.15;;
24650;SDS011;12783;48.824;8.662;2023-10-09T11:26:05;15.88;;;4.13;;
24650;SDS011;12783;48.824;8.662;2023-10-09T11:31:57;12.18;;;3.72;;
24650;SDS011;12783;48.824;8.662;2023-10-09T11:34:32;10.95;;;3.97;;
24650;SDS011;12783;48.824;8.662;2023-10-09T11:39:44;12.15;;;3.88;;
24650;SDS011;12783;48.824;8.662;2023-10-09T11:42:24;15.75;;;3.92;;
24650;SDS011;12783;48.824;8.662;2023-10-09T11:45:05;12.82;;;3.42;;
24650;SDS011;12783;48.824;8.662;2023-10-09T11:48:16;17.58;;;4.00;;
24650;SDS011;12783;48.824;8.662;2023-10-09T11:50:54;18.88;;;3.85;;
24650;SDS011;12783;48.824;8.662;2023-10-09T11:53:39;17.15;;;4.10;;
24650;SDS011;12783;48.824;8.662;2023-10-09T11:56:09;15.20;;;3.88;;
24650;SDS011;12783;48.824;8.662;2023-10-09T11:58:40;11.80;;;3.80;;
24650;SDS011;12783;48.824;8.662;2023-10-09T12:01:11;22.05;;;4.25;;
24650;SDS011;12783;48.824;8.662;2023-10-09T12:03:49;14.65;;;3.80;;
24650;SDS011;12783;48.824;8.662;2023-10-09T12:06:18;16.23;;;4.30;;
24650;SDS011;12783;48.824;8.662;2023-10-09T12:08:49;10.80;;;4.60;;
24650;SDS011;12783;48.824;8.662;2023-10-09T12:11:16;11.02;;;3.90;;
24650;SDS011;12783;48.824;8.662;2023-10-09T12:13:55;17.73;;;3.80;;
24650;SDS011;12783;48.824;8.662;2023-10-09T12:16:27;15.68;;;4.55;;
24650;SDS011;12783;48.824;8.662;2023-10-09T12:18:55;15.13;;;4.13;;
24650;SDS011;12783;48.824;8.662;2023-10-09T12:21:22;12.95;;;4.97;;
24650;SDS011;12783;48.824;8.662;2023-10-09T12:23:50;17.50;;;4.38;;
24650;SDS011;12783;48.824;8.662;2023-10-09T12:26:17;18.58;;;4.55;;
24650;SDS011;12783;48.824;8.662;2023-10-09T12:28:44;19.17;;;4.47;;
24650;SDS011;12783;48.824;8.662;2023-10-09T12:31:16;21.83;;;4.60;;
24650;SDS011;12783;48.824;8.662;2023-10-09T12:33:47;13.60;;;4.00;;
24650;SDS011;12783;48.824;8.662;2023-10-09T12:36:16;12.27;;;4.35;;
24650;SDS011;12783;48.824;8.662;2023-10-09T12:38:49;16.10;;;5.07;;
24650;SDS011;12783;48.824;8.662;2023-10-09T12:41:20;16.40;;;4.47;;
24650;SDS011;12783;48.824;8.662;2023-10-09T12:44:00;15.10;;;4.43;;
24650;SDS011;12783;48.824;8.662;2023-10-09T12:46:28;11.77;;;4.47;;
24650;SDS011;12783;48.824;8.662;2023-10-09T12:49:04;17.55;;;4.70;;
24650;SDS011;12783;48.824;8.662;2023-10-09T12:51:32;12.43;;;4.55;;
24650;SDS011;12783;48.824;8.662;2023-10-09T12:53:59;12.85;;;4.80;;
24650;SDS011;12783;48.824;8.662;2023-10-09T12:56:28;17.13;;;5.10;;
24650;SDS011;12783;48.824;8.662;2023-10-09T12:59:04;15.57;;;5.60;;
24650;SDS011;12783;48.824;8.662;2023-10-09T13:01:33;14.20;;;6.10;;
24650;SDS011;12783;48.824;8.662;2023-10-09T13:04:13;14.35;;;5.90;;
24650;SDS011;12783;48.824;8.662;2023-10-09T13:06:44;16.63;;;6.28;;
24650;SDS011;12783;48.824;8.662;2023-10-09T13:09:12;16.55;;;5.68;;
24650;SDS011;12783;48.824;8.662;2023-10-09T13:11:42;14.95;;;5.75;;
24650;SDS011;12783;48.824;8.662;2023-10-09T13:14:10;14.23;;;6.18;;
24650;SDS011;12783;48.824;8.662;2023-10-09T13:16:49;15.55;;;5.95;;
24650;SDS011;12783;48.824;8.662;2023-10-09T13:19:17;20.45;;;6.55;;
24650;SDS011;12783;48.824;8.662;2023-10-09T13:21:44;19.95;;;6.75;;
24650;SDS011;12783;48.824;8.662;2023-10-09T13:24:11;17.90;;;6.97;;
24650;SDS011;12783;48.824;8.662;2023-10-09T13:26:42;19.52;;;5.95;;
24650;SDS011;12783;48.824;8.662;2023-10-09T13:29:17;18.05;;;6.05;;
24650;SDS011;12783;48.824;8.662;2023-10-09T13:31:51;15.82;;;4.97;;
24650;SDS011;12783;48.824;8.662;2023-10-09T13:34:24;18.80;;;6.03;;
24650;SDS011;12783;48.824;8.662;2023-10-09T13:36:55;16.85;;;5.35;;
24650;SDS011;12783;48.824;8.662;2023-10-09T13:39:25;16.50;;;5.10;;
24650;SDS011;12783;48.824;8.662;2023-10-09T13:41:57;11.10;;;4.80;;
24650;SDS011;12783;48.824;8.662;2023-10-09T13:44:27;15.43;;;5.13;;
24650;SDS011;12783;48.824;8.662;2023-10-09T13:46:59;13.48;;;4.85;;
24650;SDS011;12783;48.824;8.662;2023-10-09T13:49:32;20.87;;;5.63;;
24650;SDS011;12783;48.824;8.662;2023-10-09T13:52:00;14.90;;;5.13;;
24650;SDS011;12783;48.824;8.662;2023-10-09T13:54:29;17.15;;;5.90;;
24650;SDS011;12783;48.824;8.662;2023-10-09T13:56:57;21.40;;;6.25;;
24650;SDS011;12783;48.824;8.662;2023-10-09T13:59:31;18.92;;;5.95;;
24650;SDS011;12783;48.824;8.662;2023-10-09T14:02:02;16.73;;;5.88;;
24650;SDS011;12783;48.824;8.662;2023-10-09T14:04:36;17.92;;;6.00;;
24650;SDS011;12783;48.824;8.662;2023-10-09T14:07:04;15.55;;;5.28;;
24650;SDS011;12783;48.824;8.662;2023-10-09T14:09:34;19.45;;;6.07;;
24650;SDS011;12783;48.824;8.662;2023-10-09T14:12:05;11.27;;;5.20;;
24650;SDS011;12783;48.824;8.662;2023-10-09T14:14:39;20.55;;;6.25;;
24650;SDS011;12783;48.824;8.662;2023-10-09T14:17:14;23.95;;;6.30;;
24650;SDS011;12783;48.824;8.662;2023-10-09T14:19:55;15.80;;;4.65;;
24650;SDS011;12783;48.824;8.662;2023-10-09T14:22:42;23.23;;;5.78;;
24650;SDS011;12783;48.824;8.662;2023-10-09T14:25:11;16.75;;;5.20;;
24650;SDS011;12783;48.824;8.662;2023-10-09T14:27:42;24.48;;;5.68;;
24650;SDS011;12783;48.824;8.662;2023-10-09T14:30:09;17.17;;;5.70;;
24650;SDS011;12783;48.824;8.662;2023-10-09T14:32:49;17.05;;;5.63;;
24650;SDS011;12783;48.824;8.662;2023-10-09T14:35:22;19.83;;;4.63;;
24650;SDS011;12783;48.824;8.662;2023-10-09T14:37:53;19.05;;;5.20;;
24650;SDS011;12783;48.824;8.662;2023-10-09T14:40:20;16.73;;;5.10;;
24650;SDS011;12783;48.824;8.662;2023-10-09T14:42:56;19.60;;;5.18;;
24650;SDS011;12783;48.824;8.662;2023-10-09T14:45:24;26.05;;;6.22;;
24650;SDS011;12783;48.824;8.662;2023-10-09T14:47:53;24.55;;;4.93;;
24650;SDS011;12783;48.824;8.662;2023-10-09T14:50:21;16.83;;;4.63;;
24650;SDS011;12783;48.824;8.662;2023-10-09T14:52:49;15.43;;;4.38;;
24650;SDS011;12783;48.824;8.662;2023-10-09T14:55:19;14.27;;;4.88;;
24650;SDS011;12783;48.824;8.662;2023-10-09T14:57:55;19.42;;;5.50;;
24650;SDS011;12783;48.824;8.662;2023-10-09T15:00:22;21.15;;;5.20;;
24650;SDS011;12783;48.824;8.662;2023-10-09T15:02:50;19.83;;;5.38;;
24650;SDS011;12783;48.824;8.662;2023-10-09T15:05:18;17.38;;;4.82;;
24650;SDS011;12783;48.824;8.662;2023-10-09T15:07:49;18.02;;;5.25;;
24650;SDS011;12783;48.824;8.662;2023-10-09T15:10:16;17.80;;;5.18;;
24650;SDS011;12783;48.824;8.662;2023-10-09T15:12:45;27.38;;;5.30;;
24650;SDS011;12783;48.824;8.662;2023-10-09T15:15:15;19.80;;;4.72;;
24650;SDS011;12783;48.824;8.662;2023-10-09T15:17:42;17.33;;;4.82;;
24650;SDS011;12783;48.824;8.662;2023-10-09T15:20:14;18.80;;;4.72;;
24650;SDS011;12783;48.824;8.662;2023-10-09T15:22:41;16.95;;;4.72;;
24650;SDS011;12783;48.824;8.662;2023-10-09T15:25:09;28.60;;;5.35;;
24650;SDS011;12783;48.824;8.662;2023-10-09T15:27:42;17.10;;;4.55;;
24650;SDS011;12783;48.824;8.662;2023-10-09T15:30:10;23.15;;;4.53;;
24650;SDS011;12783;48.824;8.662;2023-10-09T15:32:40;15.43;;;4.07;;
24650;SDS011;12783;48.824;8.662;2023-10-09T15:35:09;18.83;;;4.00;;
24650;SDS011;12783;48.824;8.662;2023-10-09T15:37:37;16.50;;;4.22;;
24650;SDS011;12783;48.824;8.662;2023-10-09T15:40:07;19.15;;;4.95;;
24650;SDS011;12783;48.824;8.662;2023-10-09T15:42:42;17.15;;;4.55;;
24650;SDS011;12783;48.824;8.662;2023-10-09T15:45:17;18.90;;;4.80;;
24650;SDS011;12783;48.824;8.662;2023-10-09T15:47:48;22.33;;;4.70;;
24650;SDS011;12783;48.824;8.662;2023-10-09T15:50:18;17.85;;;4.35;;
24650;SDS011;12783;48.824;8.662;2023-10-09T15:52:45;21.70;;;4.72;;